Gorham, Kansas
Current Conditions -  °F | °C
As of 7:53 PM on Friday 24 Oct 2014 (Local Time) from KRSL Reporting Station
Clear Clear  
Wind Chill: 20°   Ceiling: Unl
Heat Index: 20°   Visibility: 10mi
Dew Point: 12°   Wind: 10mph
Humidity: 61%   Direction: 190°S
Pressure: 29.98"   Gusts: NA
Location:  38.88°N, 99.02°W
Report Text: KRSL 250053Z AUTO 19009KT 10SM CLR 20/12 A2998 RMK AO2 SLP144 T02000122
Loading
Personal Weather Stations






























Interactive Weather Map
Tropical Storm Tracking
New forecast layout! Learn more

10-Day Weather Forecast

Advertisements
Track Severe Weather on mobile